Time;durP1;ratioP1;P1;durP2;ratioP2;P2;SDS_P1;SDS_P2;PMS_P1;PMS_P2;Temp;Humidity;BMP_temperature;BMP_pressure;BME280_temperature;BME280_humidity;BME280_pressure;Samples;Min_cycle;Max_cycle;Signal;HPM_P1;HPM_P2
2023/07/16 00:01:43;;;;;;;6.60;1.73;;;;;;;22.72;87.06;100589.72;5091834;28;20035;-69
2023/07/16 00:04:09;;;;;;;5.28;1.98;;;;;;;22.71;87.07;100595.25;5095503;28;20482;-68
2023/07/16 00:06:34;;;;;;;9.38;1.92;;;;;;;22.74;87.19;100590.31;5084888;28;20074;-69
2023/07/16 00:09:00;;;;;;;4.78;1.70;;;;;;;22.77;86.56;100589.88;5087297;28;20081;-69
2023/07/16 00:11:25;;;;;;;3.75;1.50;;;;;;;22.74;86.48;100589.50;5095309;28;20028;-69
2023/07/16 00:13:51;;;;;;;2.65;1.42;;;;;;;22.70;86.98;100583.81;5089399;28;20364;-68
2023/07/16 00:16:16;;;;;;;8.38;1.85;;;;;;;22.72;86.71;100584.41;5092332;28;20051;-69
2023/07/16 00:18:44;;;;;;;3.17;1.65;;;;;;;22.74;86.37;100579.69;5090024;28;20556;-69
2023/07/16 00:21:09;;;;;;;4.72;2.28;;;;;;;22.74;86.33;100578.88;5095008;28;20073;-69
2023/07/16 00:23:35;;;;;;;4.43;1.67;;;;;;;22.76;86.39;100580.28;5094778;28;20028;-69
2023/07/16 00:26:01;;;;;;;6.22;2.58;;;;;;;22.76;86.15;100577.63;5089693;28;20089;-69
2023/07/16 00:28:26;;;;;;;3.65;1.63;;;;;;;22.74;86.11;100579.69;5088231;28;20551;-69
2023/07/16 00:30:52;;;;;;;3.88;1.63;;;;;;;22.74;85.86;100582.34;5097357;28;20434;-69
2023/07/16 00:33:17;;;;;;;5.80;2.10;;;;;;;22.73;85.75;100578.06;5094914;28;20039;-68
2023/07/16 00:35:49;;;;;;;4.50;1.80;;;;;;;22.71;86.03;100574.81;5090536;28;20177;-69
2023/07/16 00:38:17;;;;;;;7.72;1.92;;;;;;;22.73;86.09;100572.75;5095144;28;20032;-69
2023/07/16 00:40:43;;;;;;;5.30;2.15;;;;;;;22.74;85.87;100577.03;5092436;28;20128;-69
2023/07/16 00:43:08;;;;;;;5.75;1.80;;;;;;;22.75;85.88;100572.53;5092238;28;20057;-69
2023/07/16 00:45:34;;;;;;;5.03;1.45;;;;;;;22.71;86.03;100568.69;5090443;28;20522;-69
2023/07/16 00:47:59;;;;;;;8.32;2.22;;;;;;;22.66;86.23;100576.53;5090268;28;20471;-69
2023/07/16 00:50:25;;;;;;;6.07;2.22;;;;;;;22.64;87.06;100579.41;5095977;28;20031;-69
2023/07/16 00:52:51;;;;;;;6.95;2.20;;;;;;;22.55;87.91;100569.31;5089544;28;20052;-69
2023/07/16 00:55:16;;;;;;;3.10;1.90;;;;;;;22.54;87.69;100578.31;5095631;28;20479;-69
2023/07/16 00:57:42;;;;;;;3.42;1.55;;;;;;;22.57;87.81;100567.25;5088566;28;20034;-69
2023/07/16 01:00:09;;;;;;;5.35;1.95;;;;;;;22.56;87.73;100568.28;5095209;28;20109;-69
2023/07/16 01:02:35;;;;;;;4.10;2.00;;;;;;;22.54;87.95;100565.03;5090012;28;20028;-69
2023/07/16 01:05:01;;;;;;;6.43;1.90;;;;;;;22.50;88.66;100562.00;5088649;28;20031;-68
2023/07/16 01:07:30;;;;;;;6.68;2.40;;;;;;;22.52;88.69;100555.44;5069185;28;20522;-69
2023/07/16 01:09:56;;;;;;;6.25;2.20;;;;;;;22.51;88.60;100556.47;5082651;28;20054;-69
2023/07/16 01:12:23;;;;;;;5.18;2.17;;;;;;;22.47;89.98;100551.81;5093707;28;20028;-69
2023/07/16 01:14:50;;;;;;;4.13;2.25;;;;;;;22.35;91.01;100553.56;5089631;28;20923;-69
2023/07/16 01:17:16;;;;;;;7.15;2.60;;;;;;;22.34;91.74;100546.63;5083663;28;20063;-69
2023/07/16 01:19:41;;;;;;;6.50;2.40;;;;;;;22.26;91.78;100552.22;5087165;28;20424;-69
2023/07/16 01:22:07;;;;;;;7.07;2.80;;;;;;;22.19;92.00;100544.34;5086303;28;20483;-69
2023/07/16 01:24:51;;;;;;;7.78;2.40;;;;;;;22.13;92.20;100548.69;5074355;28;20028;-69
2023/07/16 01:27:34;;;;;;;4.93;2.05;;;;;;;22.12;91.78;100548.91;5085973;28;20024;-69
2023/07/16 01:30:08;;;;;;;8.13;2.85;;;;;;;22.14;92.04;100545.00;5084957;28;20426;-70
2023/07/16 01:32:37;;;;;;;4.18;2.42;;;;;;;22.10;92.43;100535.03;5092073;28;20067;-69
2023/07/16 01:35:04;;;;;;;4.95;2.88;;;;;;;22.09;92.82;100542.19;5089836;28;20028;-69
2023/07/16 01:37:30;;;;;;;3.65;2.10;;;;;;;22.09;93.31;100539.53;5085931;28;20035;-69
2023/07/16 01:39:55;;;;;;;4.47;2.40;;;;;;;22.06;93.38;100539.97;5086554;28;20020;-69
2023/07/16 01:42:20;;;;;;;4.85;2.92;;;;;;;22.06;93.72;100534.66;5081325;28;20020;-69
2023/07/16 01:44:46;;;;;;;8.68;2.42;;;;;;;22.05;93.63;100533.03;5085631;28;20380;-69
2023/07/16 01:47:15;;;;;;;6.13;2.83;;;;;;;22.10;92.98;100535.03;5083178;28;20047;-69
2023/07/16 01:49:44;;;;;;;3.88;2.72;;;;;;;22.04;93.14;100528.75;5085239;28;20039;-69
2023/07/16 01:52:09;;;;;;;7.85;2.53;;;;;;;22.09;94.02;100526.28;5081490;28;20035;-69
2023/07/16 01:54:36;;;;;;;5.22;2.22;;;;;;;22.08;94.77;100524.66;5081065;28;20395;-69
2023/07/16 01:57:01;;;;;;;7.28;3.35;;;;;;;22.01;94.73;100525.69;5087648;28;20115;-69
2023/07/16 01:59:27;;;;;;;6.55;2.38;;;;;;;21.96;95.31;100522.88;5087895;28;20111;-69
2023/07/16 02:01:52;;;;;;;4.22;2.63;;;;;;;21.95;95.95;100522.06;5087112;28;20476;-69
2023/07/16 02:04:18;;;;;;;3.10;2.25;;;;;;;21.96;95.93;100521.03;5090133;28;20040;-69
2023/07/16 02:06:43;;;;;;;5.68;2.67;;;;;;;21.94;95.61;100524.94;5092319;28;20495;-69
2023/07/16 02:09:10;;;;;;;3.20;2.20;;;;;;;21.85;95.40;100524.41;5089506;28;20035;-69
2023/07/16 02:11:35;;;;;;;5.38;2.55;;;;;;;21.86;95.56;100523.38;5090824;28;20062;-69
2023/07/16 02:14:00;;;;;;;5.07;2.92;;;;;;;21.86;95.42;100524.19;5086832;28;20067;-69
2023/07/16 02:16:26;;;;;;;4.63;3.00;;;;;;;21.84;95.08;100520.94;5088960;28;20150;-69
2023/07/16 02:18:51;;;;;;;6.22;3.17;;;;;;;21.91;94.03;100525.38;5091038;28;20061;-69
2023/07/16 02:21:17;;;;;;;5.90;2.83;;;;;;;22.00;93.21;100519.59;5089921;28;20028;-69
2023/07/16 02:23:42;;;;;;;6.18;2.30;;;;;;;22.04;93.22;100518.16;5090238;28;20047;-69
2023/07/16 02:26:08;;;;;;;6.97;2.70;;;;;;;22.04;93.81;100522.66;5091109;28;20039;-69
2023/07/16 02:28:33;;;;;;;5.93;2.33;;;;;;;21.99;94.46;100523.25;5084873;28;20044;-69
2023/07/16 02:30:58;;;;;;;7.35;2.65;;;;;;;21.98;95.10;100521.63;5087729;28;20100;-69
2023/07/16 02:33:24;;;;;;;7.30;2.63;;;;;;;21.98;95.01;100516.34;5092239;28;20097;-69
2023/07/16 02:35:51;;;;;;;6.70;3.05;;;;;;;22.01;94.72;100520.41;5089846;28;20028;-69
2023/07/16 02:38:17;;;;;;;4.97;2.38;;;;;;;22.05;94.20;100514.47;5093111;28;20476;-69
2023/07/16 02:40:44;;;;;;;8.57;2.85;;;;;;;22.08;93.81;100515.88;5093997;28;20038;-69
2023/07/16 02:43:09;;;;;;;6.43;2.80;;;;;;;22.06;93.76;100508.13;5090606;28;20038;-69
2023/07/16 02:45:35;;;;;;;5.43;2.67;;;;;;;22.04;94.30;100512.03;5088785;28;20399;-69
2023/07/16 02:48:00;;;;;;;5.40;2.55;;;;;;;22.00;94.25;100506.31;5094165;28;20034;-69
2023/07/16 02:50:26;;;;;;;4.80;2.80;;;;;;;22.02;94.32;100517.56;5090765;28;20111;-69
2023/07/16 02:52:51;;;;;;;4.18;2.78;;;;;;;22.01;94.35;100509.78;5094619;28;20043;-69
2023/07/16 02:55:17;;;;;;;9.90;2.67;;;;;;;22.00;94.49;100514.28;5094953;28;20125;-69
2023/07/16 02:57:42;;;;;;;4.75;2.75;;;;;;;22.02;94.17;100511.44;5087462;28;20035;-69
2023/07/16 03:00:08;;;;;;;5.65;2.45;;;;;;;21.98;94.00;100516.34;5088622;28;20048;-70
2023/07/16 03:02:34;;;;;;;4.18;2.42;;;;;;;21.96;94.38;100512.28;5086952;28;20040;-69
2023/07/16 03:05:00;;;;;;;4.38;2.33;;;;;;;21.93;94.46;100513.53;5092609;28;20082;-69
2023/07/16 03:07:25;;;;;;;6.47;2.85;;;;;;;21.94;94.71;100519.63;5094856;28;20039;-69
2023/07/16 03:09:50;;;;;;;6.20;2.72;;;;;;;21.93;94.63;100518.81;5090954;28;20024;-69
2023/07/16 03:12:16;;;;;;;4.88;2.58;;;;;;;21.89;94.92;100522.13;5097602;28;20032;-69
2023/07/16 03:14:41;;;;;;;7.65;2.80;;;;;;;21.86;95.62;100524.19;5087091;28;20040;-69
2023/07/16 03:17:07;;;;;;;7.38;2.70;;;;;;;21.89;94.99;100517.63;5094231;28;20032;-69
2023/07/16 03:19:33;;;;;;;7.22;2.42;;;;;;;21.88;95.47;100520.50;5089097;28;20063;-69
2023/07/16 03:21:58;;;;;;;4.10;2.60;;;;;;;21.90;95.36;100518.44;5091876;28;20036;-69
2023/07/16 03:24:23;;;;;;;8.70;3.50;;;;;;;21.88;95.06;100518.66;5093521;28;20343;-69
2023/07/16 03:26:49;;;;;;;5.95;3.05;;;;;;;21.85;94.95;100522.56;5089838;28;20031;-69
2023/07/16 03:29:14;;;;;;;8.52;2.83;;;;;;;21.85;95.22;100516.44;5078924;28;20036;-69
2023/07/16 03:31:40;;;;;;;7.70;2.58;;;;;;;21.81;95.73;100515.25;5079225;28;20035;-69
2023/07/16 03:34:05;;;;;;;6.25;2.70;;;;;;;21.82;95.66;100517.69;5097280;28;20035;-69
2023/07/16 03:36:31;;;;;;;3.88;2.60;;;;;;;21.77;95.91;100522.00;5084009;28;20035;-69
2023/07/16 03:38:56;;;;;;;6.75;2.70;;;;;;;21.78;96.13;100527.09;5093119;28;20059;-69
2023/07/16 03:41:22;;;;;;;4.72;2.80;;;;;;;21.77;96.09;100525.47;5087378;28;20064;-69
2023/07/16 03:43:47;;;;;;;7.95;2.70;;;;;;;21.75;96.06;100529.38;5090492;28;20173;-69
2023/07/16 03:46:13;;;;;;;6.43;3.47;;;;;;;21.72;96.09;100525.34;5085442;28;20056;-69
2023/07/16 03:48:38;;;;;;;4.63;2.85;;;;;;;21.69;96.53;100523.13;5085376;28;20033;-69
2023/07/16 03:51:03;;;;;;;7.72;2.80;;;;;;;21.70;96.78;100530.03;5079161;28;20080;-69
2023/07/16 03:53:29;;;;;;;3.88;2.25;;;;;;;21.68;97.13;100528.63;5091181;28;20027;-68
2023/07/16 03:55:54;;;;;;;7.43;2.35;;;;;;;21.63;97.04;100533.78;5089572;28;20035;-69
2023/07/16 03:58:20;;;;;;;6.22;2.30;;;;;;;21.58;97.92;100534.41;5093206;28;20369;-69
2023/07/16 04:00:45;;;;;;;6.88;2.65;;;;;;;21.58;98.00;100547.66;5084987;28;20024;-69
2023/07/16 04:03:11;;;;;;;13.43;3.38;;;;;;;21.55;98.33;100542.78;5088833;28;20038;-69
2023/07/16 04:05:36;;;;;;;7.32;3.25;;;;;;;21.53;98.58;100545.66;5083332;28;20060;-69
2023/07/16 04:08:02;;;;;;;5.63;2.25;;;;;;;21.56;98.02;100546.25;5083910;28;20024;-69
2023/07/16 04:10:27;;;;;;;7.20;2.75;;;;;;;21.51;98.54;100542.41;5085180;28;20127;-69
2023/07/16 04:12:53;;;;;;;6.60;3.28;;;;;;;21.52;98.73;100553.81;5087129;28;20039;-69
2023/07/16 04:15:18;;;;;;;6.50;3.80;;;;;;;21.54;98.27;100551.78;5086286;28;20035;-69
2023/07/16 04:17:43;;;;;;;5.60;2.97;;;;;;;21.55;98.18;100557.88;5085608;28;20039;-69
2023/07/16 04:20:09;;;;;;;7.95;2.90;;;;;;;21.56;97.93;100564.81;5084523;28;20123;-69
2023/07/16 04:22:35;;;;;;;5.70;2.50;;;;;;;21.61;97.51;100562.34;5086435;28;20173;-69
2023/07/16 04:25:01;;;;;;;8.43;3.13;;;;;;;21.61;97.33;100567.63;5084237;28;20028;-69
2023/07/16 04:27:26;;;;;;;4.60;2.80;;;;;;;21.61;97.57;100564.97;5083470;28;20032;-69
2023/07/16 04:29:52;;;;;;;7.63;2.25;;;;;;;21.60;97.62;100566.81;5083449;28;20035;-69
2023/07/16 04:32:17;;;;;;;8.50;3.40;;;;;;;21.62;97.56;100570.06;5085641;28;20035;-69
2023/07/16 04:34:43;;;;;;;4.78;2.40;;;;;;;21.63;97.66;100562.94;5081529;28;20048;-69
2023/07/16 04:37:08;;;;;;;10.20;2.55;;;;;;;21.67;96.90;100567.59;5089904;28;20032;-69
2023/07/16 04:39:33;;;;;;;7.40;2.78;;;;;;;21.67;96.80;100562.28;5080918;28;20051;-69
2023/07/16 04:41:59;;;;;;;5.05;2.53;;;;;;;21.73;97.20;100561.44;5090794;28;20102;-69
2023/07/16 04:44:24;;;;;;;4.15;2.60;;;;;;;21.78;96.66;100563.41;5090451;28;20035;-69
2023/07/16 04:46:50;;;;;;;5.78;2.90;;;;;;;21.80;97.04;100564.00;5088081;28;20044;-69
2023/07/16 04:49:15;;;;;;;7.40;2.42;;;;;;;21.85;96.51;100566.84;5090755;28;20077;-68
2023/07/16 04:51:41;;;;;;;5.75;2.72;;;;;;;21.92;96.45;100572.91;5087121;28;20043;-68
2023/07/16 04:54:06;;;;;;;13.32;2.65;;;;;;;22.00;95.83;100569.19;5088306;28;20109;-68
2023/07/16 04:56:32;;;;;;;4.75;2.60;;;;;;;22.06;95.98;100563.84;5088638;28;20038;-68
2023/07/16 04:58:57;;;;;;;5.18;2.70;;;;;;;22.10;95.30;100566.88;5086368;28;20117;-68
2023/07/16 05:01:22;;;;;;;10.18;2.25;;;;;;;22.12;95.51;100568.28;5083966;28;20468;-69
2023/07/16 05:03:48;;;;;;;8.93;2.55;;;;;;;22.17;94.95;100565.78;5087926;28;20455;-68
2023/07/16 05:06:13;;;;;;;4.03;2.30;;;;;;;22.20;94.57;100572.50;5086546;28;20039;-67
2023/07/16 05:08:39;;;;;;;6.78;2.35;;;;;;;22.30;95.04;100572.81;5086758;28;20032;-68
2023/07/16 05:11:04;;;;;;;12.23;3.03;;;;;;;22.39;94.03;100576.00;5087330;28;20406;-68
2023/07/16 05:13:30;;;;;;;8.93;2.33;;;;;;;22.43;93.73;100571.88;5087401;28;20195;-68
2023/07/16 05:15:55;;;;;;;9.57;2.78;;;;;;;22.48;93.29;100574.69;5087962;28;20087;-68
2023/07/16 05:18:22;;;;;;;3.72;1.98;;;;;;;22.51;92.78;100580.38;5080564;28;20055;-68
2023/07/16 05:20:48;;;;;;;5.30;1.98;;;;;;;22.56;92.74;100581.56;5078632;28;20032;-68
2023/07/16 05:23:14;;;;;;;4.13;2.10;;;;;;;22.61;92.60;100585.16;5081974;28;20074;-68
2023/07/16 05:25:45;;;;;;;5.68;2.63;;;;;;;22.66;92.64;100581.84;5072420;28;20075;-68
2023/07/16 05:28:11;;;;;;;4.50;2.50;;;;;;;22.70;92.13;100581.16;5078376;28;20024;-68
2023/07/16 05:30:36;;;;;;;3.55;2.13;;;;;;;22.77;91.97;100576.59;5082824;28;20043;-68
2023/07/16 05:33:02;;;;;;;6.53;2.13;;;;;;;22.86;91.36;100579.00;5078824;28;20028;-68
2023/07/16 05:35:27;;;;;;;11.98;2.75;;;;;;;22.94;91.19;100586.66;5065716;28;20044;-69
2023/07/16 05:37:53;;;;;;;3.90;2.10;;;;;;;23.01;90.69;100585.56;5082689;28;20054;-69
2023/07/16 05:40:18;;;;;;;6.28;2.42;;;;;;;23.08;90.44;100586.28;5075315;28;20020;-68
2023/07/16 05:42:44;;;;;;;7.03;2.63;;;;;;;23.15;90.21;100580.91;5077653;28;20032;-68
2023/07/16 05:45:09;;;;;;;4.55;2.38;;;;;;;23.28;89.56;100590.53;5075334;28;20060;-68
2023/07/16 05:47:35;;;;;;;2.78;2.20;;;;;;;23.35;88.77;100604.53;5066050;28;20036;-68
2023/07/16 05:50:01;;;;;;;7.53;2.42;;;;;;;23.42;88.50;100587.47;5059194;28;20044;-68
2023/07/16 05:52:26;;;;;;;7.20;2.25;;;;;;;23.57;88.22;100594.25;5038632;28;20028;-68
2023/07/16 05:54:52;;;;;;;8.07;2.75;;;;;;;23.69;87.71;100593.22;5060618;28;20385;-68
2023/07/16 05:57:17;;;;;;;8.25;2.30;;;;;;;23.78;87.04;100596.38;5067690;28;20020;-69
2023/07/16 05:59:43;;;;;;;7.95;2.50;;;;;;;23.87;86.61;100597.69;5062672;28;20416;-69
2023/07/16 06:02:08;;;;;;;9.60;2.25;;;;;;;23.87;86.78;100591.53;5030457;28;20052;-69
2023/07/16 06:04:33;;;;;;;8.18;2.45;;;;;;;23.86;86.83;100593.41;5066441;28;20035;-69
2023/07/16 06:06:59;;;;;;;6.88;2.45;;;;;;;23.93;86.86;100593.28;5063253;28;20042;-69
2023/07/16 06:09:24;;;;;;;6.85;2.05;;;;;;;24.02;86.27;100586.59;5064326;28;20028;-69
2023/07/16 06:11:50;;;;;;;9.77;2.22;;;;;;;24.08;86.02;100583.03;5066395;28;20021;-69
2023/07/16 06:14:16;;;;;;;8.70;1.95;;;;;;;24.22;85.66;100589.72;5061724;28;20024;-68
2023/07/16 06:16:41;;;;;;;5.75;2.10;;;;;;;24.33;84.88;100583.63;5044136;28;20368;-68
2023/07/16 06:19:07;;;;;;;4.68;2.00;;;;;;;24.48;84.35;100593.81;5067903;28;20036;-68
2023/07/16 06:21:32;;;;;;;8.57;2.13;;;;;;;24.55;83.98;100591.84;5063780;28;20029;-69
2023/07/16 06:23:58;;;;;;;7.10;2.10;;;;;;;24.60;83.46;100594.59;5042518;28;20642;-69
2023/07/16 06:26:23;;;;;;;4.90;2.03;;;;;;;24.69;83.85;100598.53;5070025;28;20597;-69
2023/07/16 06:28:49;;;;;;;5.03;1.95;;;;;;;24.83;83.73;100603.59;5068798;28;20077;-69
2023/07/16 06:31:18;;;;;;;10.30;2.40;;;;;;;24.98;82.74;100609.28;5060726;28;20028;-69
2023/07/16 06:33:46;;;;;;;7.97;2.58;;;;;;;25.16;81.61;100611.75;5061949;28;20074;-69
2023/07/16 06:36:12;;;;;;;6.70;2.30;;;;;;;25.30;81.53;100609.63;5069131;28;20034;-69
2023/07/16 06:38:37;;;;;;;4.22;2.08;;;;;;;25.21;81.19;100605.72;5070063;28;20388;-69
2023/07/16 06:41:03;;;;;;;7.75;2.75;;;;;;;25.18;81.63;100606.19;5066236;28;20036;-69
2023/07/16 06:43:28;;;;;;;10.30;2.55;;;;;;;25.25;81.15;100610.34;5068128;28;20032;-69
2023/07/16 06:45:54;;;;;;;5.40;2.47;;;;;;;25.30;81.13;100609.63;5077387;28;20086;-69
2023/07/16 06:48:19;;;;;;;8.70;1.90;;;;;;;25.41;80.39;100608.78;5091977;28;20039;-69
2023/07/16 06:50:46;;;;;;;7.32;1.98;;;;;;;25.47;80.28;100618.50;5083485;28;20032;-69
2023/07/16 06:53:11;;;;;;;8.93;2.63;;;;;;;25.53;79.66;100614.03;5088610;28;20032;-69
2023/07/16 06:55:37;;;;;;;7.20;2.20;;;;;;;25.61;79.36;100608.31;5084010;28;20127;-69
2023/07/16 06:58:03;;;;;;;4.55;2.72;;;;;;;25.75;79.35;100612.34;5078641;28;20028;-69
2023/07/16 07:00:29;;;;;;;7.15;2.65;;;;;;;25.89;78.93;100612.84;5082794;28;20031;-68
2023/07/16 07:02:55;;;;;;;8.02;3.25;;;;;;;26.01;78.72;100617.03;5073524;28;20044;-67
2023/07/16 07:05:21;;;;;;;7.35;2.78;;;;;;;26.12;78.47;100616.16;5084259;28;20443;-68
2023/07/16 07:07:48;;;;;;;5.00;2.17;;;;;;;26.32;77.96;100612.22;5078264;28;20133;-67
2023/07/16 07:10:13;;;;;;;8.35;3.00;;;;;;;26.55;77.46;100616.53;5076880;28;20108;-69
2023/07/16 07:12:39;;;;;;;9.15;2.85;;;;;;;26.73;77.11;100614.41;5078555;28;20167;-69
2023/07/16 07:15:09;;;;;;;7.32;2.70;;;;;;;26.78;76.35;100606.44;5085718;28;20534;-68
2023/07/16 07:17:35;;;;;;;8.55;2.90;;;;;;;26.76;76.58;100616.59;5091319;28;20039;-68
2023/07/16 07:20:01;;;;;;;4.55;2.63;;;;;;;26.87;74.59;100609.50;5088378;28;20062;-68
2023/07/16 07:22:27;;;;;;;9.10;2.83;;;;;;;26.98;73.95;100611.25;5083507;28;20060;-68
2023/07/16 07:24:52;;;;;;;11.50;2.40;;;;;;;26.99;73.84;100609.38;5085697;28;20055;-68
2023/07/16 07:27:18;;;;;;;7.85;2.70;;;;;;;27.03;74.07;100607.84;5086836;28;20055;-68
2023/07/16 07:29:43;;;;;;;8.23;2.72;;;;;;;27.15;73.67;100605.84;5090776;28;20043;-68
2023/07/16 07:32:09;;;;;;;8.73;2.97;;;;;;;27.16;73.96;100604.78;5090903;28;20035;-67
2023/07/16 07:34:34;;;;;;;7.90;3.08;;;;;;;27.20;73.24;100613.94;5083191;28;20040;-67
2023/07/16 07:37:00;;;;;;;9.82;2.80;;;;;;;27.26;72.54;100609.44;5068031;28;20035;-67
2023/07/16 07:39:25;;;;;;;8.70;3.47;;;;;;;27.40;72.01;100606.13;5091464;28;20387;-67
2023/07/16 07:41:51;;;;;;;4.10;2.50;;;;;;;27.59;71.63;100616.50;5084068;28;20059;-68
2023/07/16 07:44:16;;;;;;;7.72;2.78;;;;;;;27.61;71.11;100609.03;5088375;28;20036;-67
2023/07/16 07:46:41;;;;;;;6.88;2.67;;;;;;;27.60;70.05;100612.75;5089610;28;20044;-67
2023/07/16 07:49:07;;;;;;;8.65;2.47;;;;;;;27.67;69.49;100614.16;5064614;28;20044;-66
2023/07/16 07:51:32;;;;;;;8.93;2.38;;;;;;;27.84;69.49;100614.06;5087842;28;20039;-66
2023/07/16 07:53:58;;;;;;;7.60;2.50;;;;;;;27.89;68.94;100616.75;5083553;28;20040;-67
2023/07/16 07:56:23;;;;;;;4.78;1.90;;;;;;;27.86;68.83;100622.66;5087148;28;20020;-67
2023/07/16 07:58:49;;;;;;;5.07;2.00;;;;;;;27.87;68.96;100624.25;5090668;28;20113;-66
2023/07/16 08:01:14;;;;;;;8.10;2.88;;;;;;;27.84;69.00;100627.44;5066265;28;20024;-69
2023/07/16 08:03:40;;;;;;;8.93;2.15;;;;;;;28.09;69.84;100622.28;5090391;28;20136;-69
2023/07/16 08:06:05;;;;;;;7.82;2.63;;;;;;;28.27;68.29;100628.34;5086719;28;20466;-69
2023/07/16 08:08:30;;;;;;;8.50;2.67;;;;;;;28.40;68.44;100623.31;5083490;28;20039;-69
2023/07/16 08:10:56;;;;;;;5.88;2.63;;;;;;;28.45;68.66;100625.22;5090908;28;20024;-72
2023/07/16 08:13:21;;;;;;;3.42;2.30;;;;;;;28.73;67.71;100624.84;5085736;28;20036;-72
2023/07/16 08:15:47;;;;;;;7.72;2.50;;;;;;;28.92;66.40;100627.91;5085735;28;20036;-72
2023/07/16 08:18:13;;;;;;;6.72;2.60;;;;;;;28.82;65.47;100635.13;5088583;28;20119;-72
2023/07/16 08:20:40;;;;;;;4.80;2.40;;;;;;;28.91;66.14;100633.53;5089323;28;20104;-72
2023/07/16 08:23:06;;;;;;;5.45;2.20;;;;;;;29.16;65.50;100633.63;5088335;28;20036;-72
2023/07/16 08:25:31;;;;;;;7.13;2.40;;;;;;;29.37;65.23;100640.66;5084566;28;20038;-72
2023/07/16 08:27:56;;;;;;;7.68;2.33;;;;;;;29.47;64.21;100634.53;5085784;28;20024;-72
2023/07/16 08:30:22;;;;;;;9.10;2.28;;;;;;;29.58;63.70;100622.75;5086023;28;20050;-70
2023/07/16 08:32:47;;;;;;;6.78;2.33;;;;;;;29.68;63.72;100632.72;5088266;28;20054;-69
2023/07/16 08:35:16;;;;;;;8.05;2.50;;;;;;;29.53;63.44;100632.69;5090181;28;20044;-69
2023/07/16 08:37:42;;;;;;;5.97;2.33;;;;;;;29.31;63.33;100641.72;5087085;28;20028;-69
2023/07/16 08:40:09;;;;;;;5.15;2.80;;;;;;;29.40;63.70;100637.44;5066132;28;20451;-69
2023/07/16 08:42:37;;;;;;;8.05;2.65;;;;;;;29.42;63.44;100639.09;5082692;28;20097;-69
2023/07/16 08:45:06;;;;;;;6.43;2.90;;;;;;;29.36;63.56;100631.00;5090498;28;20048;-68
2023/07/16 08:47:31;;;;;;;5.03;2.50;;;;;;;29.29;63.93;100638.53;5086824;28;20052;-68
2023/07/16 08:49:57;;;;;;;4.50;2.33;;;;;;;29.33;63.88;100631.53;5071118;28;20514;-69
2023/07/16 08:52:27;;;;;;;5.43;2.25;;;;;;;29.62;63.41;100639.94;5088273;28;20070;-70
2023/07/16 08:54:52;;;;;;;6.68;2.97;;;;;;;29.60;62.73;100641.28;5088746;28;20377;-70
2023/07/16 08:57:19;;;;;;;8.45;1.98;;;;;;;29.66;62.35;100640.22;5090290;28;20089;-70
2023/07/16 08:59:50;;;;;;;7.38;2.85;;;;;;;29.65;61.89;100638.63;5088445;28;20033;-70
2023/07/16 09:02:20;;;;;;;6.18;2.58;;;;;;;29.61;61.89;100638.34;5090265;28;20515;-70
2023/07/16 09:04:49;;;;;;;7.05;2.80;;;;;;;29.80;62.08;100643.97;5089303;28;20048;-70
2023/07/16 09:07:15;;;;;;;8.65;2.95;;;;;;;29.85;61.29;100641.28;5088856;28;20434;-69
2023/07/16 09:09:41;;;;;;;8.68;2.42;;;;;;;29.90;61.09;100633.25;5088129;28;21139;-69
2023/07/16 09:12:10;;;;;;;7.85;3.00;;;;;;;29.94;61.66;100637.00;5089384;28;20414;-69
2023/07/16 09:14:36;;;;;;;5.95;2.20;;;;;;;29.92;62.57;100641.03;5088166;28;20055;-70
2023/07/16 09:17:02;;;;;;;6.35;2.63;;;;;;;29.86;61.99;100640.22;5089733;28;20522;-70
2023/07/16 09:19:27;;;;;;;10.50;3.22;;;;;;;29.72;61.89;100631.09;5088872;28;20036;-70
2023/07/16 09:21:53;;;;;;;6.45;2.88;;;;;;;30.00;60.91;100635.16;5089623;28;20030;-69
2023/07/16 09:24:19;;;;;;;7.80;2.35;;;;;;;30.09;61.67;100643.50;5089912;28;20455;-69
2023/07/16 09:26:52;;;;;;;6.40;2.38;;;;;;;30.45;61.22;100636.97;5089222;28;20032;-68
2023/07/16 09:29:19;;;;;;;4.75;2.63;;;;;;;30.71;61.15;100634.28;5090130;28;20070;-69
2023/07/16 09:31:53;;;;;;;7.60;3.05;;;;;;;30.81;60.82;100629.63;5089420;28;20028;-68
2023/07/16 09:34:18;;;;;;;6.22;2.25;;;;;;;30.58;61.00;100632.97;5083878;28;20036;-67
2023/07/16 09:36:47;;;;;;;9.82;2.17;;;;;;;30.36;60.36;100633.22;5078927;28;20382;-67
2023/07/16 09:39:16;;;;;;;7.00;2.58;;;;;;;30.43;60.62;100632.97;5089546;28;20067;-67
2023/07/16 09:41:42;;;;;;;6.47;2.53;;;;;;;30.55;60.58;100636.97;5073701;28;20086;-67
2023/07/16 09:44:07;;;;;;;5.45;2.35;;;;;;;30.46;60.44;100638.59;5088267;28;20036;-67
2023/07/16 09:46:33;;;;;;;10.77;2.45;;;;;;;30.55;60.05;100633.47;5074339;28;20078;-68
2023/07/16 09:48:58;;;;;;;7.43;2.50;;;;;;;30.37;60.72;100638.34;5068146;28;20495;-68
2023/07/16 09:51:25;;;;;;;5.75;2.85;;;;;;;30.27;59.96;100635.66;5083505;28;20442;-68
2023/07/16 09:53:52;;;;;;;5.55;2.80;;;;;;;30.32;59.83;100638.34;5088867;28;20028;-68
2023/07/16 09:56:18;;;;;;;4.50;2.28;;;;;;;30.30;59.73;100642.38;5077318;28;20037;-68
2023/07/16 09:58:45;;;;;;;8.93;2.90;;;;;;;30.43;60.52;100632.97;5054806;28;20036;-68
2023/07/16 10:01:11;;;;;;;6.43;2.90;;;;;;;30.45;59.65;100649.63;5079688;28;20139;-67
2023/07/16 10:03:36;;;;;;;10.20;3.20;;;;;;;30.36;60.00;100635.91;5073644;28;20040;-68
2023/07/16 10:06:06;;;;;;;4.40;2.67;;;;;;;30.41;60.52;100635.91;5085935;28;20033;-68
2023/07/16 10:08:34;;;;;;;5.95;2.65;;;;;;;30.48;59.83;100636.44;5074416;28;20047;-68
2023/07/16 10:11:00;;;;;;;7.65;3.08;;;;;;;30.36;60.21;100636.72;5076360;28;20040;-68
2023/07/16 10:13:26;;;;;;;6.30;2.70;;;;;;;30.29;60.36;100643.44;5089122;28;20425;-68
2023/07/16 10:15:58;;;;;;;4.50;2.83;;;;;;;30.24;61.21;100638.13;5083520;28;20024;-68
2023/07/16 10:18:24;;;;;;;6.47;2.70;;;;;;;30.25;61.58;100637.81;5086426;28;20148;-67
2023/07/16 10:20:51;;;;;;;7.20;3.10;;;;;;;30.34;61.45;100641.56;5089784;28;20103;-67
2023/07/16 10:23:18;;;;;;;5.95;2.83;;;;;;;30.51;60.66;100635.91;5086542;28;20080;-67
2023/07/16 10:26:00;;;;;;;4.97;2.90;;;;;;;30.51;62.38;100638.59;5092645;28;20047;-68
2023/07/16 10:28:26;;;;;;;7.63;2.95;;;;;;;30.77;60.33;100631.25;5078929;28;20024;-67
2023/07/16 10:30:51;;;;;;;8.48;2.97;;;;;;;30.74;61.26;100633.69;5091584;28;20081;-67
2023/07/16 10:33:17;;;;;;;8.32;3.15;;;;;;;30.62;60.40;100632.16;5079104;28;20032;-67
2023/07/16 10:35:44;;;;;;;7.28;3.70;;;;;;;30.56;60.83;100635.09;5089534;28;20044;-67
2023/07/16 10:38:10;;;;;;;11.63;3.05;;;;;;;30.68;61.54;100628.38;5090010;28;20044;-67
2023/07/16 10:40:44;;;;;;;10.23;2.85;;;;;;;30.87;61.98;100631.22;5085089;28;20128;-67
2023/07/16 10:43:09;;;;;;;8.02;2.75;;;;;;;31.04;61.70;100625.53;5084786;28;20024;-68
2023/07/16 10:45:35;;;;;;;10.30;3.33;;;;;;;31.13;61.41;100621.22;5088287;28;20056;-68
2023/07/16 10:48:01;;;;;;;6.68;2.72;;;;;;;31.20;61.13;100616.28;5083788;28;20056;-66
2023/07/16 10:50:26;;;;;;;7.50;3.10;;;;;;;31.19;61.25;100611.22;5086686;28;20491;-66
2023/07/16 10:52:56;;;;;;;6.57;2.67;;;;;;;30.83;60.32;100597.91;5092283;28;20140;-66
2023/07/16 10:55:23;;;;;;;6.70;3.40;;;;;;;30.78;61.71;100607.88;5089580;28;20029;-66
2023/07/16 10:57:49;;;;;;;7.43;2.55;;;;;;;30.74;60.97;100609.50;5092050;28;20457;-66
2023/07/16 11:00:16;;;;;;;14.40;3.30;;;;;;;30.53;60.67;100612.25;5073766;28;20388;-65
2023/07/16 11:02:43;;;;;;;5.68;2.72;;;;;;;30.44;61.57;100610.38;5089021;28;20035;-66
2023/07/16 11:05:13;;;;;;;6.60;3.05;;;;;;;30.76;59.78;100612.72;5092081;28;20070;-66
2023/07/16 11:07:49;;;;;;;8.40;3.55;;;;;;;30.89;60.80;100609.44;5089804;28;20039;-66
2023/07/16 11:10:16;;;;;;;8.10;2.70;;;;;;;31.10;60.75;100615.53;5090722;28;20428;-66
2023/07/16 11:12:42;;;;;;;5.32;3.10;;;;;;;31.18;60.61;100615.00;5085510;28;20040;-66
2023/07/16 11:15:08;;;;;;;6.07;2.72;;;;;;;31.22;60.84;100607.94;5082550;28;20035;-66
2023/07/16 11:17:36;;;;;;;5.57;2.58;;;;;;;31.15;61.15;100612.84;5087183;28;20051;-66
2023/07/16 11:20:02;;;;;;;8.63;3.28;;;;;;;31.17;60.61;100618.78;5089796;28;20442;-66